Time;durP1;ratioP1;P1;durP2;ratioP2;P2;SDS_P1;SDS_P2;PMS_P1;PMS_P2;Temp;Humidity;BMP_temperature;BMP_pressure;BME280_temperature;BME280_humidity;BME280_pressure;Samples;Min_cycle;Max_cycle;Signal;HPM_P1;HPM_P2
2022/08/21 00:01:03;;;;;;;4.95;4.60;;;16.00;99.90;;;;;;5052691;28;20273;-71
2022/08/21 00:03:28;;;;;;;6.10;4.80;;;15.90;99.90;;;;;;5051620;28;20672;-71
2022/08/21 00:05:54;;;;;;;5.28;4.35;;;15.80;99.90;;;;;;5051634;28;20185;-71
2022/08/21 00:08:20;;;;;;;4.90;4.50;;;15.80;99.90;;;;;;5051991;28;20243;-71
2022/08/21 00:10:46;;;;;;;4.82;4.47;;;15.90;99.90;;;;;;5052321;28;20246;-71
2022/08/21 00:13:48;;;;;;;5.78;4.53;;;15.90;99.90;;;;;;5053390;28;20202;-71
2022/08/21 00:16:13;;;;;;;5.35;4.80;;;15.80;99.90;;;;;;5052670;28;20598;-71
2022/08/21 00:18:39;;;;;;;4.68;4.28;;;15.70;99.90;;;;;;5051911;28;20209;-71
2022/08/21 00:21:05;;;;;;;4.55;4.15;;;15.70;99.90;;;;;;5052210;28;20212;-71
2022/08/21 00:23:34;;;;;;;4.88;4.47;;;15.70;99.90;;;;;;5051828;28;20198;-71
2022/08/21 00:25:59;;;;;;;4.90;4.50;;;15.60;99.90;;;;;;5052731;28;20170;-71
2022/08/21 00:28:25;;;;;;;4.72;4.30;;;15.60;99.90;;;;;;5052199;28;20193;-71
2022/08/21 00:30:50;;;;;;;4.55;4.25;;;15.60;99.90;;;;;;5053929;28;20210;-71
2022/08/21 00:33:16;;;;;;;4.97;4.63;;;15.60;99.90;;;;;;5054489;28;20301;-71
2022/08/21 00:35:43;;;;;;;6.20;5.10;;;15.50;99.90;;;;;;5053478;27;20237;-71
2022/08/21 00:38:09;;;;;;;4.65;4.30;;;15.30;99.90;;;;;;5052217;28;20174;-71
2022/08/21 00:40:47;;;;;;;5.25;4.75;;;15.10;99.90;;;;;;5051829;28;20182;-71
2022/08/21 00:43:15;;;;;;;4.65;4.28;;;15.10;99.90;;;;;;5052117;28;20247;-71
2022/08/21 00:45:41;;;;;;;4.90;4.47;;;15.10;99.90;;;;;;5052797;28;20319;-71
2022/08/21 00:48:07;;;;;;;4.53;4.20;;;14.90;99.90;;;;;;5051742;28;20212;-71
2022/08/21 00:50:37;;;;;;;4.78;4.47;;;14.90;99.90;;;;;;5052062;28;20178;-71
2022/08/21 00:53:06;;;;;;;5.32;4.93;;;15.00;99.90;;;;;;5052678;28;20205;-71
2022/08/21 00:55:33;;;;;;;7.40;5.00;;;15.00;99.90;;;;;;5053720;28;20185;-71
2022/08/21 00:58:00;;;;;;;5.70;5.30;;;14.80;99.90;;;;;;5052800;28;20525;-71
2022/08/21 01:00:30;;;;;;;4.93;4.60;;;14.70;99.90;;;;;;5053582;28;20242;-71
2022/08/21 01:03:01;;;;;;;7.50;5.40;;;14.70;99.90;;;;;;5052823;28;20214;-71
2022/08/21 01:05:27;;;;;;;5.68;5.18;;;14.70;99.90;;;;;;5052457;28;20197;-71
2022/08/21 01:07:56;;;;;;;5.40;4.90;;;14.80;99.90;;;;;;5051704;28;20182;-71
2022/08/21 01:10:22;;;;;;;5.90;5.40;;;14.80;99.90;;;;;;5052301;28;20180;-71
2022/08/21 01:12:50;;;;;;;6.00;5.50;;;14.90;99.90;;;;;;5053839;28;20292;-71
2022/08/21 01:15:17;;;;;;;5.93;5.20;;;14.80;99.90;;;;;;5052313;28;20207;-71
2022/08/21 01:17:43;;;;;;;5.75;5.18;;;14.90;99.90;;;;;;5051811;28;20175;-71
2022/08/21 01:20:10;;;;;;;5.53;5.13;;;14.90;99.90;;;;;;5051542;28;20182;-71
2022/08/21 01:22:36;;;;;;;5.88;5.38;;;14.90;99.90;;;;;;5052544;28;20194;-71
2022/08/21 01:25:05;;;;;;;8.82;4.95;;;14.90;99.90;;;;;;5051807;28;20174;-71
2022/08/21 01:27:31;;;;;;;5.60;5.10;;;14.90;99.90;;;;;;5051473;28;20272;-71
2022/08/21 01:30:01;;;;;;;5.40;5.00;;;14.90;99.90;;;;;;5052457;28;20220;-71
2022/08/21 01:32:27;;;;;;;5.63;5.22;;;14.90;99.90;;;;;;5051902;28;20217;-71
2022/08/21 01:34:53;;;;;;;7.47;4.72;;;14.90;99.90;;;;;;5051486;28;20639;-71
2022/08/21 01:37:21;;;;;;;5.53;5.03;;;14.90;99.90;;;;;;5051401;28;20174;-71
2022/08/21 01:39:47;;;;;;;5.03;4.70;;;14.90;99.90;;;;;;5051403;28;20178;-71
2022/08/21 01:42:13;;;;;;;4.70;4.32;;;14.80;99.90;;;;;;5052000;28;20695;-71
2022/08/21 01:44:39;;;;;;;7.45;5.35;;;14.80;99.90;;;;;;5051069;28;20196;-71
2022/08/21 01:47:08;;;;;;;5.22;4.82;;;14.80;99.90;;;;;;5052049;28;20182;-71
2022/08/21 01:49:35;;;;;;;5.45;4.90;;;14.80;99.90;;;;;;5052099;28;20178;-71
2022/08/21 01:52:03;;;;;;;5.70;5.20;;;14.80;99.90;;;;;;5050692;28;20300;-71
2022/08/21 01:54:30;;;;;;;5.63;4.90;;;14.80;99.90;;;;;;5050717;28;20178;-71
2022/08/21 01:56:56;;;;;;;5.05;4.65;;;14.80;99.90;;;;;;5050999;28;20178;-71
2022/08/21 01:59:23;;;;;;;7.22;5.40;;;14.80;99.90;;;;;;5051197;28;20311;-71
2022/08/21 02:01:49;;;;;;;7.18;5.20;;;14.70;99.90;;;;;;5052788;28;20186;-71
2022/08/21 02:04:23;;;;;;;5.47;4.97;;;14.50;99.90;;;;;;5052424;28;20197;-71
2022/08/21 02:06:49;;;;;;;8.05;4.72;;;14.40;99.90;;;;;;5051884;28;20181;-71
2022/08/21 02:09:15;;;;;;;7.30;4.80;;;14.50;99.90;;;;;;5050896;28;20186;-71
2022/08/21 02:11:41;;;;;;;6.00;5.28;;;14.50;99.90;;;;;;5052157;28;20225;-71
2022/08/21 02:14:13;;;;;;;6.40;5.00;;;14.40;99.90;;;;;;5053302;28;20202;-71
2022/08/21 02:16:40;;;;;;;6.00;5.43;;;14.40;99.90;;;;;;5052375;28;20166;-71
2022/08/21 02:19:05;;;;;;;5.85;5.05;;;14.30;99.90;;;;;;5051861;28;20178;-71
2022/08/21 02:21:32;;;;;;;6.20;5.13;;;14.20;99.90;;;;;;5052675;28;20242;-71
2022/08/21 02:23:57;;;;;;;6.95;4.88;;;14.20;99.90;;;;;;5051268;28;20237;-71
2022/08/21 02:26:23;;;;;;;5.15;4.65;;;14.20;99.90;;;;;;5051304;28;20210;-71
2022/08/21 02:28:49;;;;;;;6.05;4.57;;;14.30;99.90;;;;;;5051375;28;20178;-71
2022/08/21 02:31:15;;;;;;;4.97;4.50;;;14.30;99.90;;;;;;5052074;28;20265;-71
2022/08/21 02:33:41;;;;;;;5.47;5.07;;;14.30;99.90;;;;;;5050804;28;20230;-71
2022/08/21 02:36:07;;;;;;;5.93;4.75;;;14.20;99.90;;;;;;5051628;27;20174;-71
2022/08/21 02:38:37;;;;;;;4.90;4.50;;;14.20;99.90;;;;;;5051999;28;20182;-71
2022/08/21 02:41:05;;;;;;;4.78;4.47;;;14.30;99.90;;;;;;5052499;28;20570;-71
2022/08/21 02:43:31;;;;;;;4.80;4.40;;;14.10;99.90;;;;;;5052831;28;20683;-71
2022/08/21 02:45:57;;;;;;;5.82;4.55;;;14.10;99.90;;;;;;5052272;28;20178;-71
2022/08/21 02:48:26;;;;;;;5.70;5.20;;;14.10;99.90;;;;;;5052101;28;20676;-71
2022/08/21 02:50:59;;;;;;;7.10;5.20;;;14.10;99.90;;;;;;5053047;28;20202;-71
2022/08/21 02:53:25;;;;;;;6.30;5.70;;;14.00;99.90;;;;;;5053437;28;20552;-71
2022/08/21 02:55:52;;;;;;;5.65;5.15;;;14.00;99.90;;;;;;5052078;27;20181;-71
2022/08/21 02:58:27;;;;;;;6.35;5.70;;;14.00;99.90;;;;;;5051994;28;20208;-71
2022/08/21 03:00:53;;;;;;;8.40;5.78;;;13.90;99.90;;;;;;5056294;28;20162;-71
2022/08/21 03:03:20;;;;;;;6.35;4.80;;;13.80;99.90;;;;;;5057121;28;20296;-71
2022/08/21 03:05:46;;;;;;;5.60;5.10;;;13.80;99.90;;;;;;5057371;28;20207;-71
2022/08/21 03:08:13;;;;;;;5.75;5.22;;;13.80;99.90;;;;;;5056997;28;20178;-71
2022/08/21 03:10:43;;;;;;;6.20;5.13;;;13.70;99.90;;;;;;5057157;28;20182;-71
2022/08/21 03:13:10;;;;;;;6.15;4.70;;;13.70;99.90;;;;;;5056877;28;20270;-71
2022/08/21 03:15:36;;;;;;;5.00;4.55;;;13.80;99.90;;;;;;5055563;28;20174;-71
2022/08/21 03:18:04;;;;;;;5.55;5.05;;;13.80;99.90;;;;;;5056421;28;20187;-71
2022/08/21 03:20:32;;;;;;;10.80;4.68;;;13.80;99.90;;;;;;5055933;28;20180;-71
2022/08/21 03:22:58;;;;;;;7.57;5.18;;;13.50;99.90;;;;;;5056470;28;20285;-71
2022/08/21 03:25:25;;;;;;;5.47;5.07;;;13.50;99.90;;;;;;5056564;28;20268;-71
2022/08/21 03:27:50;;;;;;;5.20;4.72;;;13.50;99.90;;;;;;5055427;28;20181;-71
2022/08/21 03:30:19;;;;;;;5.38;4.60;;;13.50;99.90;;;;;;5055553;28;20636;-71
2022/08/21 03:32:46;;;;;;;6.10;4.60;;;13.60;99.90;;;;;;5056068;28;20234;-71
2022/08/21 03:35:12;;;;;;;4.95;4.18;;;13.70;99.90;;;;;;5056373;28;20223;-71
2022/08/21 03:37:38;;;;;;;10.32;4.93;;;13.70;99.90;;;;;;5057465;28;20174;-71
2022/08/21 03:40:06;;;;;;;9.75;4.93;;;13.70;99.90;;;;;;5055264;28;20190;-71
2022/08/21 03:42:34;;;;;;;5.30;4.90;;;13.70;99.90;;;;;;5055925;28;20198;-71
2022/08/21 03:45:00;;;;;;;5.20;4.72;;;13.70;99.90;;;;;;5057206;28;20193;-71
2022/08/21 03:47:26;;;;;;;5.60;5.10;;;13.70;99.90;;;;;;5055902;28;20263;-71
2022/08/21 03:49:52;;;;;;;5.80;5.30;;;13.60;99.90;;;;;;5055799;28;20178;-71
2022/08/21 03:52:17;;;;;;;7.10;5.43;;;13.60;99.90;;;;;;5057073;28;20269;-71
2022/08/21 03:54:44;;;;;;;5.13;4.70;;;13.60;99.90;;;;;;5055941;28;20628;-71
2022/08/21 03:57:10;;;;;;;5.43;4.85;;;13.50;99.90;;;;;;5056526;28;20227;-71
2022/08/21 03:59:37;;;;;;;4.85;4.43;;;13.50;99.90;;;;;;5055136;27;20178;-71
2022/08/21 04:02:04;;;;;;;5.70;4.28;;;13.60;99.90;;;;;;5056018;28;20265;-71
2022/08/21 04:04:30;;;;;;;5.47;4.55;;;13.70;99.90;;;;;;5056025;28;20177;-71
2022/08/21 04:06:57;;;;;;;4.30;3.90;;;13.70;99.90;;;;;;5055565;28;20190;-71
2022/08/21 04:09:23;;;;;;;4.93;3.90;;;13.80;99.90;;;;;;5054924;28;20250;-71
2022/08/21 04:11:49;;;;;;;4.30;4.00;;;13.90;99.90;;;;;;5054100;28;20217;-71
2022/08/21 04:14:15;;;;;;;4.60;4.30;;;13.90;99.90;;;;;;5054886;28;20194;-71
2022/08/21 04:16:42;;;;;;;4.60;4.13;;;13.80;99.90;;;;;;5055979;28;20181;-71
2022/08/21 04:19:08;;;;;;;5.70;4.15;;;13.90;99.90;;;;;;5054742;28;20657;-71
2022/08/21 04:21:36;;;;;;;5.30;4.80;;;13.80;99.90;;;;;;5055545;28;20211;-71
2022/08/21 04:24:02;;;;;;;4.43;4.03;;;13.70;99.90;;;;;;5056365;28;20198;-71
2022/08/21 04:26:28;;;;;;;5.20;4.70;;;13.70;99.90;;;;;;5055393;28;20546;-71
2022/08/21 04:28:57;;;;;;;4.60;4.20;;;13.60;99.90;;;;;;5055971;28;20182;-71
2022/08/21 04:31:23;;;;;;;5.68;5.07;;;13.50;99.90;;;;;;5055923;28;20178;-71
2022/08/21 04:33:48;;;;;;;5.03;4.50;;;13.50;99.90;;;;;;5055654;28;20190;-71
2022/08/21 04:36:14;;;;;;;5.07;4.68;;;13.50;99.90;;;;;;5055723;28;20223;-71
2022/08/21 04:38:39;;;;;;;5.05;4.65;;;13.50;99.90;;;;;;5056419;27;20185;-71
2022/08/21 04:41:06;;;;;;;4.88;4.47;;;13.50;99.90;;;;;;5056269;28;20257;-71
2022/08/21 04:43:32;;;;;;;6.90;4.75;;;13.60;99.90;;;;;;5056613;27;20258;-71
2022/08/21 04:45:57;;;;;;;5.30;4.75;;;13.60;99.90;;;;;;5055144;28;20224;-71
2022/08/21 04:48:26;;;;;;;4.68;4.30;;;13.60;99.90;;;;;;5055987;28;20194;-71
2022/08/21 04:50:57;;;;;;;4.90;4.40;;;13.60;99.90;;;;;;5055045;28;20182;-71
2022/08/21 04:54:07;;;;;;;4.78;4.35;;;13.70;99.90;;;;;;5055857;28;20710;-71
2022/08/21 04:56:45;;;;;;;4.60;4.28;;;13.70;99.90;;;;;;5057666;28;20186;-71
2022/08/21 04:59:16;;;;;;;4.78;4.43;;;13.80;99.90;;;;;;5055641;28;20225;-71
2022/08/21 05:01:42;;;;;;;4.85;4.50;;;13.90;99.90;;;;;;5055163;28;20166;-71
2022/08/21 05:04:11;;;;;;;5.53;4.60;;;14.10;99.90;;;;;;5053774;28;20206;-71
2022/08/21 05:06:40;;;;;;;6.20;4.60;;;14.20;99.90;;;;;;5053793;28;20283;-71
2022/08/21 05:09:06;;;;;;;5.47;5.07;;;14.30;99.90;;;;;;5053914;28;20178;-71
2022/08/21 05:11:32;;;;;;;4.65;4.28;;;14.20;99.90;;;;;;5053924;28;20220;-71
2022/08/21 05:13:58;;;;;;;4.70;4.28;;;14.20;99.90;;;;;;5053697;28;20672;-71
2022/08/21 05:16:24;;;;;;;5.63;5.00;;;14.20;99.90;;;;;;5053865;28;20252;-71
2022/08/21 05:18:50;;;;;;;6.35;4.43;;;14.20;99.90;;;;;;5054241;28;20178;-71
2022/08/21 05:21:16;;;;;;;5.10;4.68;;;14.30;99.90;;;;;;5053214;28;20209;-71
2022/08/21 05:23:42;;;;;;;5.90;5.40;;;14.50;99.90;;;;;;5052533;28;20212;-71
2022/08/21 05:26:08;;;;;;;5.20;4.70;;;14.60;99.90;;;;;;5054250;28;20221;-71
2022/08/21 05:28:33;;;;;;;4.60;4.30;;;14.70;99.90;;;;;;5054966;27;20536;-71
2022/08/21 05:30:59;;;;;;;5.47;4.70;;;14.80;99.90;;;;;;5055013;28;20178;-71
2022/08/21 05:33:25;;;;;;;5.05;4.47;;;15.00;99.90;;;;;;5054648;28;20210;-71
2022/08/21 05:35:52;;;;;;;6.95;4.88;;;15.10;99.90;;;;;;5052341;28;20230;-71
2022/08/21 05:38:18;;;;;;;5.25;4.85;;;15.20;99.90;;;;;;5052247;28;20258;-71
2022/08/21 05:40:45;;;;;;;5.28;4.75;;;15.10;99.90;;;;;;5052751;28;20220;-71
2022/08/21 05:43:11;;;;;;;4.78;4.20;;;15.20;99.90;;;;;;5052184;28;20206;-71
2022/08/21 05:45:36;;;;;;;4.68;4.38;;;15.40;99.90;;;;;;5051917;28;20185;-71
2022/08/21 05:48:23;;;;;;;5.22;4.82;;;15.40;99.90;;;;;;5053254;28;20181;-71
2022/08/21 05:50:50;;;;;;;5.07;4.65;;;15.60;99.90;;;;;;5052202;28;20205;-71
2022/08/21 05:53:18;;;;;;;4.80;4.50;;;15.70;99.90;;;;;;5051649;28;20271;-71
2022/08/21 05:55:45;;;;;;;5.57;5.10;;;15.70;99.90;;;;;;5051747;28;20589;-71
2022/08/21 05:58:11;;;;;;;5.00;4.60;;;15.70;99.90;;;;;;5051939;28;20269;-71
2022/08/21 06:00:46;;;;;;;5.45;4.95;;;15.70;99.90;;;;;;5051536;28;20268;-71
2022/08/21 06:03:21;;;;;;;5.82;5.32;;;15.80;99.90;;;;;;5051980;28;20721;-71
2022/08/21 06:05:47;;;;;;;6.20;5.63;;;15.90;99.90;;;;;;5052615;28;20222;-71
2022/08/21 06:08:19;;;;;;;6.85;5.82;;;16.00;99.90;;;;;;5051084;28;20196;-71
2022/08/21 06:10:46;;;;;;;6.93;6.43;;;16.10;99.90;;;;;;5052034;28;20170;-71
2022/08/21 06:13:12;;;;;;;5.93;5.50;;;16.20;99.90;;;;;;5051819;28;20242;-71
2022/08/21 06:15:39;;;;;;;6.32;5.55;;;16.30;99.90;;;;;;5051045;28;20174;-71
2022/08/21 06:18:05;;;;;;;6.30;5.80;;;16.40;99.90;;;;;;5050633;28;20648;-71
2022/08/21 06:20:31;;;;;;;6.50;6.00;;;16.50;99.90;;;;;;5051520;28;20211;-71
2022/08/21 06:22:57;;;;;;;9.07;6.28;;;16.60;99.90;;;;;;5050501;28;20205;-71
2022/08/21 06:25:24;;;;;;;7.45;6.50;;;16.80;99.90;;;;;;5050860;28;20178;-71
2022/08/21 06:27:50;;;;;;;6.63;6.05;;;16.80;99.90;;;;;;5051513;28;20640;-71
2022/08/21 06:30:16;;;;;;;7.07;5.88;;;16.80;99.90;;;;;;5050934;28;20178;-71
2022/08/21 06:32:41;;;;;;;7.15;6.63;;;16.70;99.90;;;;;;5049986;28;20304;-71
2022/08/21 06:35:07;;;;;;;6.90;6.35;;;16.70;99.90;;;;;;5049335;28;20174;-71
2022/08/21 06:37:33;;;;;;;6.03;5.53;;;16.70;99.90;;;;;;5051940;28;20179;-71
2022/08/21 06:39:58;;;;;;;6.88;6.30;;;16.80;99.90;;;;;;5051807;27;20234;-71
2022/08/21 06:42:24;;;;;;;7.78;6.63;;;17.00;99.90;;;;;;5050222;28;20202;-71
2022/08/21 06:44:50;;;;;;;7.40;6.75;;;17.10;99.90;;;;;;5050838;28;20174;-71
2022/08/21 06:47:16;;;;;;;7.15;6.55;;;17.20;99.90;;;;;;5049870;28;20178;-71
2022/08/21 06:49:41;;;;;;;7.57;6.88;;;17.40;99.90;;;;;;5050050;28;20229;-71
2022/08/21 06:52:24;;;;;;;7.68;6.97;;;17.60;99.90;;;;;;5049280;28;20297;-71
2022/08/21 06:54:50;;;;;;;7.43;6.82;;;17.80;99.90;;;;;;5049448;28;20189;-71
2022/08/21 06:57:16;;;;;;;7.07;6.57;;;17.90;99.90;;;;;;5050695;28;20527;-71
2022/08/21 06:59:41;;;;;;;7.60;7.00;;;18.00;99.90;;;;;;5049280;28;20226;-71
2022/08/21 07:02:07;;;;;;;7.50;6.85;;;18.20;99.90;;;;;;5049279;28;20190;-71
2022/08/21 07:04:33;;;;;;;8.23;7.47;;;18.30;99.90;;;;;;5050475;28;20182;-71
2022/08/21 07:06:59;;;;;;;8.68;7.10;;;18.40;99.90;;;;;;5049794;28;20182;-71
2022/08/21 07:09:24;;;;;;;8.10;7.50;;;18.50;99.90;;;;;;5050250;28;20194;-71
2022/08/21 07:11:53;;;;;;;7.97;7.28;;;18.70;99.90;;;;;;5049398;28;20214;-76
2022/08/21 07:14:19;;;;;;;7.80;7.03;;;18.70;99.90;;;;;;5049038;28;20246;-72
2022/08/21 07:16:44;;;;;;;8.35;7.60;;;18.80;99.90;;;;;;5048759;28;20586;-72
2022/08/21 07:19:10;;;;;;;6.88;6.35;;;19.10;99.90;;;;;;5050293;28;20227;-72
2022/08/21 07:21:36;;;;;;;7.82;7.07;;;19.20;99.90;;;;;;5049032;28;20179;-72
2022/08/21 07:24:02;;;;;;;7.53;6.68;;;19.30;99.90;;;;;;5049426;28;20209;-72
2022/08/21 07:26:28;;;;;;;7.25;6.65;;;19.40;99.90;;;;;;5049868;28;20179;-72
2022/08/21 07:28:53;;;;;;;8.23;6.20;;;19.50;99.90;;;;;;5050189;28;20178;-72
2022/08/21 07:31:22;;;;;;;7.95;6.10;;;19.60;99.90;;;;;;5050141;28;20170;-72
2022/08/21 07:33:48;;;;;;;6.38;5.90;;;19.80;99.90;;;;;;5048639;28;20225;-72
2022/08/21 07:36:14;;;;;;;6.03;5.55;;;20.00;99.90;;;;;;5050031;28;20633;-72
2022/08/21 07:38:40;;;;;;;6.93;5.50;;;20.00;99.90;;;;;;5050209;28;20307;-72
2022/08/21 07:41:14;;;;;;;5.72;5.25;;;20.20;99.90;;;;;;5050471;28;20181;-72
2022/08/21 07:43:39;;;;;;;6.03;5.53;;;20.40;99.90;;;;;;5051592;28;20208;-72
2022/08/21 07:46:05;;;;;;;6.22;5.50;;;20.50;99.90;;;;;;5051163;27;20261;-72
2022/08/21 07:48:31;;;;;;;5.90;5.40;;;20.60;99.90;;;;;;5053192;28;20273;-72
2022/08/21 07:50:57;;;;;;;6.32;5.70;;;20.80;99.90;;;;;;5055156;28;20199;-72
2022/08/21 07:53:23;;;;;;;6.15;5.57;;;20.90;99.90;;;;;;5054988;28;20210;-72
2022/08/21 07:55:48;;;;;;;6.32;5.72;;;21.10;99.90;;;;;;5055211;28;20177;-72
2022/08/21 07:58:14;;;;;;;8.23;5.65;;;21.20;99.90;;;;;;5056788;28;20293;-72
2022/08/21 08:00:40;;;;;;;7.28;5.55;;;21.30;99.90;;;;;;5055247;28;20174;-72
2022/08/21 08:03:06;;;;;;;6.07;5.47;;;21.30;99.90;;;;;;5054759;28;20202;-72
2022/08/21 08:05:32;;;;;;;8.23;5.93;;;21.30;99.90;;;;;;5055838;28;20173;-72
2022/08/21 08:08:03;;;;;;;5.25;4.70;;;21.40;99.90;;;;;;5055093;28;20178;-72
2022/08/21 08:10:31;;;;;;;5.00;4.50;;;21.60;99.90;;;;;;5054469;28;20170;-72
2022/08/21 08:12:56;;;;;;;6.60;4.70;;;21.80;99.90;;;;;;5055706;28;20248;-72
2022/08/21 08:15:30;;;;;;;5.32;4.70;;;21.90;99.90;;;;;;5056093;28;20253;-72
2022/08/21 08:17:56;;;;;;;4.95;4.53;;;22.10;99.90;;;;;;5056034;28;20511;-72
2022/08/21 08:20:24;;;;;;;5.03;4.25;;;22.10;99.90;;;;;;5056038;28;20179;-72
2022/08/21 08:22:50;;;;;;;4.43;4.10;;;22.20;99.90;;;;;;5054015;28;20198;-72
2022/08/21 08:25:17;;;;;;;6.40;5.00;;;22.30;99.90;;;;;;5055919;28;20189;-73
2022/08/21 08:27:43;;;;;;;5.43;4.45;;;22.50;99.90;;;;;;5056727;28;20178;-73
2022/08/21 08:30:11;;;;;;;5.50;4.53;;;22.60;99.90;;;;;;5058335;28;20201;-73
2022/08/21 08:32:37;;;;;;;5.45;4.95;;;22.60;99.90;;;;;;5057686;28;20270;-72
2022/08/21 08:35:04;;;;;;;4.45;4.03;;;22.60;99.90;;;;;;5055345;28;20653;-72
2022/08/21 08:37:31;;;;;;;5.55;4.60;;;22.70;99.90;;;;;;5057508;28;20174;-72
2022/08/21 08:39:57;;;;;;;7.10;4.18;;;22.90;99.90;;;;;;5058196;28;20667;-73
2022/08/21 08:42:28;;;;;;;4.65;4.25;;;22.90;99.90;;;;;;5058252;28;20198;-72
2022/08/21 08:45:04;;;;;;;4.68;4.28;;;23.00;99.90;;;;;;5059944;28;20246;-72
2022/08/21 08:47:32;;;;;;;5.13;4.63;;;23.20;99.90;;;;;;5057940;28;20170;-73
2022/08/21 08:50:33;;;;;;;5.28;3.83;;;23.50;99.90;;;;;;5057895;28;20510;-73
2022/08/21 08:53:10;;;;;;;4.88;3.65;;;23.70;99.90;;;;;;5058815;28;20214;-72
2022/08/21 08:55:41;;;;;;;5.82;4.25;;;24.10;99.90;;;;;;5057077;28;20166;-72
2022/08/21 08:58:12;;;;;;;5.60;4.45;;;24.30;99.90;;;;;;5057737;28;20191;-72
2022/08/21 09:00:38;;;;;;;6.85;4.50;;;24.30;99.90;;;;;;5058081;28;20640;-72
2022/08/21 09:03:04;;;;;;;5.85;3.83;;;24.30;99.90;;;;;;5057852;28;20236;-72
2022/08/21 09:06:02;;;;;;;7.60;3.95;;;24.20;99.90;;;;;;5056262;28;20186;-72
2022/08/21 09:08:34;;;;;;;4.88;4.40;;;24.10;99.90;;;;;;5054259;28;20166;-72
2022/08/21 09:11:18;;;;;;;4.40;4.10;;;23.90;99.90;;;;;;5054967;28;20201;-72
2022/08/21 09:13:49;;;;;;;9.30;4.47;;;23.80;99.90;;;;;;5053798;28;20228;-72
2022/08/21 09:16:50;;;;;;;5.10;3.97;;;23.80;99.90;;;;;;5053395;28;20625;-73
2022/08/21 09:19:34;;;;;;;7.15;6.40;;;24.10;99.90;;;;;;5060346;28;20193;-73
2022/08/21 09:22:18;;;;;;;5.00;4.00;;;24.30;99.90;;;;;;5054994;28;20175;-73
2022/08/21 09:24:56;;;;;;;7.38;4.43;;;24.40;99.90;;;;;;5056287;28;20181;-73
2022/08/21 09:27:25;;;;;;;5.90;4.00;;;24.60;99.90;;;;;;5055769;28;20186;-73
2022/08/21 09:29:58;;;;;;;7.18;3.90;;;24.50;99.50;;;;;;5055353;28;20182;-73
2022/08/21 09:32:30;;;;;;;6.82;4.18;;;24.20;99.90;;;;;;5055608;27;20239;-72
2022/08/21 09:35:05;;;;;;;5.63;3.90;;;24.10;99.90;;;;;;5056276;28;20254;-72
2022/08/21 09:37:34;;;;;;;9.20;3.70;;;24.10;99.90;;;;;;5055160;28;20192;-72
2022/08/21 09:40:01;;;;;;;6.78;4.15;;;23.90;99.90;;;;;;5054843;28;20182;-72
2022/08/21 09:42:33;;;;;;;3.85;3.42;;;23.80;99.90;;;;;;5054255;28;20194;-72
2022/08/21 09:45:12;;;;;;;4.15;3.75;;;24.00;99.90;;;;;;5052521;28;20253;-72
2022/08/21 09:48:11;;;;;;;5.60;3.72;;;24.40;98.20;;;;;;5053756;28;20185;-72
2022/08/21 09:50:37;;;;;;;4.50;3.60;;;24.60;97.60;;;;;;5053028;28;20185;-72
2022/08/21 09:53:03;;;;;;;4.97;3.60;;;25.30;96.20;;;;;;5053332;27;20214;-72
2022/08/21 09:58:32;;;;;;;5.00;3.20;;;25.60;92.80;;;;;;5046164;28;20193;-72
2022/08/21 10:00:59;;;;;;;3.95;3.25;;;25.40;92.90;;;;;;5053738;28;20170;-72
2022/08/21 10:03:25;;;;;;;4.07;3.60;;;25.50;92.70;;;;;;5052083;28;20202;-72
2022/08/21 10:06:20;;;;;;;6.07;3.20;;;25.60;91.10;;;;;;5053255;28;20178;-72
2022/08/21 10:08:45;;;;;;;4.50;2.80;;;25.70;91.30;;;;;;5051678;28;20174;-72
2022/08/21 10:11:16;;;;;;;6.80;3.45;;;25.90;91.00;;;;;;5050861;28;20200;-72
2022/08/21 10:14:14;;;;;;;4.68;3.35;;;25.90;89.70;;;;;;5052177;28;20676;-72
2022/08/21 10:16:55;;;;;;;6.75;3.58;;;26.00;90.90;;;;;;5053235;28;20174;-73
2022/08/21 10:19:30;;;;;;;7.30;3.63;;;25.80;87.90;;;;;;5053224;28;20170;-73
2022/08/21 10:22:02;;;;;;;3.65;3.20;;;25.80;88.30;;;;;;5052398;28;20264;-72
2022/08/21 10:24:48;;;;;;;5.28;3.67;;;25.70;87.30;;;;;;5053980;28;20611;-73
2022/08/21 10:27:42;;;;;;;13.88;9.40;;;25.70;88.00;;;;;;5052540;28;20182;-72
2022/08/21 10:30:26;;;;;;;8.43;4.72;;;25.80;86.90;;;;;;5055831;28;20550;-72
2022/08/21 10:33:15;;;;;;;9.05;4.28;;;25.50;85.80;;;;;;5055328;28;20232;-72
2022/08/21 10:35:51;;;;;;;4.22;3.10;;;25.60;85.10;;;;;;5055414;28;20189;-72
2022/08/21 10:38:35;;;;;;;3.08;2.80;;;25.80;86.60;;;;;;5052833;28;20173;-72
2022/08/21 10:41:38;;;;;;;5.25;2.88;;;26.10;85.60;;;;;;5052402;28;20162;-72
2022/08/21 10:44:26;;;;;;;6.00;4.15;;;26.50;83.70;;;;;;5052479;28;20190;-72
2022/08/21 10:47:02;;;;;;;4.75;3.20;;;26.70;82.70;;;;;;5052377;28;20210;-74
2022/08/21 10:49:52;;;;;;;7.22;3.42;;;26.70;79.20;;;;;;5051244;28;20513;-75
2022/08/21 10:52:45;;;;;;;7.53;3.33;;;26.60;79.90;;;;;;5050787;28;20218;-72
2022/08/21 10:55:25;;;;;;;5.05;3.10;;;26.10;78.70;;;;;;5051652;28;20253;-72
2022/08/21 10:58:09;;;;;;;5.07;3.22;;;25.60;80.30;;;;;;5052478;28;20169;-72
2022/08/21 11:01:00;;;;;;;5.15;3.60;;;25.40;84.10;;;;;;5052397;28;20170;-72
2022/08/21 11:03:38;;;;;;;9.18;3.15;;;25.30;82.60;;;;;;5052231;28;20205;-72
2022/08/21 11:06:21;;;;;;;5.32;3.15;;;25.10;82.60;;;;;;5052848;28;20178;-72
